createdAt,value
2023-04-21T00:01:44.677Z,101155.81
2023-04-21T00:04:15.313Z,101149.91
2023-04-21T00:06:44.400Z,101148.47
2023-04-21T00:09:12.275Z,101152.19
2023-04-21T00:11:40.301Z,101141.59
2023-04-21T00:14:09.583Z,101144.50
2023-04-21T00:16:37.560Z,101141.88
2023-04-21T00:19:07.046Z,101143.81
2023-04-21T00:21:35.291Z,101145.84
2023-04-21T00:24:03.193Z,101140.94
2023-04-21T00:26:31.126Z,101134.88
2023-04-21T00:28:59.392Z,101138.19
2023-04-21T00:31:28.710Z,101130.66
2023-04-21T00:33:56.816Z,101135.75
2023-04-21T00:36:28.125Z,101133.69
2023-04-21T00:38:56.113Z,101133.69
2023-04-21T00:41:24.804Z,101124.06
2023-04-21T00:44:02.410Z,101120.75
2023-04-21T00:46:34.838Z,101123.28
2023-04-21T00:49:05.853Z,101124.72
2023-04-21T00:51:35.525Z,101119.16
2023-04-21T00:54:06.127Z,101109.09
2023-04-21T00:56:36.703Z,101104.53
2023-04-21T00:59:04.752Z,101106.41
2023-04-21T01:01:36.576Z,101105.53
2023-04-21T01:04:06.299Z,101110.84
2023-04-21T01:06:35.120Z,101105.63
2023-04-21T01:09:05.407Z,101101.72
2023-04-21T01:11:33.608Z,101104.81
2023-04-21T01:14:01.874Z,101103.69
2023-04-21T01:16:30.230Z,101101.34
2023-04-21T01:19:00.197Z,101089.38
2023-04-21T01:21:28.976Z,101094.75
2023-04-21T01:23:58.424Z,101098.06
2023-04-21T01:26:26.442Z,101096.28
2023-04-21T01:28:58.365Z,101098.75
2023-04-21T01:31:27.371Z,101093.00
2023-04-21T01:33:55.537Z,101088.63
2023-04-21T01:36:23.456Z,101093.75
2023-04-21T01:38:53.453Z,101094.50
2023-04-21T01:41:24.915Z,101087.38
2023-04-21T01:43:55.012Z,101091.97
2023-04-21T01:46:25.318Z,101094.03
2023-04-21T01:48:53.409Z,101095.47
2023-04-21T01:51:21.419Z,101088.50
2023-04-21T01:53:50.024Z,101090.25
2023-04-21T01:56:18.964Z,101091.41
2023-04-21T01:58:48.265Z,101083.19
2023-04-21T02:01:16.498Z,101091.66
2023-04-21T02:03:44.678Z,101093.41
2023-04-21T02:06:14.030Z,101091.47
2023-04-21T02:08:41.877Z,101102.25
2023-04-21T02:11:09.848Z,101092.31
2023-04-21T02:13:38.548Z,101093.53
2023-04-21T02:16:13.883Z,101102.06
2023-04-21T02:18:42.520Z,101094.69
2023-04-21T02:21:10.470Z,101094.94
2023-04-21T02:23:38.399Z,101098.88
2023-04-21T02:26:06.769Z,101093.88
2023-04-21T02:28:34.743Z,101102.84
2023-04-21T02:31:02.630Z,101098.28
2023-04-21T02:33:32.023Z,101087.91
2023-04-21T02:36:00.152Z,101089.69
2023-04-21T02:38:31.109Z,101086.59
2023-04-21T02:40:59.740Z,101087.19
2023-04-21T02:43:30.956Z,101086.59
2023-04-21T02:45:59.456Z,101087.88
2023-04-21T02:48:27.913Z,101089.25
2023-04-21T02:50:57.560Z,101089.53
2023-04-21T02:53:25.486Z,101088.84
2023-04-21T02:55:54.498Z,101096.72
2023-04-21T02:58:22.479Z,101094.34
2023-04-21T03:00:51.580Z,101088.22
2023-04-21T03:03:19.851Z,101098.31
2023-04-21T03:05:48.104Z,101095.16
2023-04-21T03:08:20.603Z,101091.78
2023-04-21T03:10:48.684Z,101100.56
2023-04-21T03:13:22.617Z,101104.19
2023-04-21T03:15:53.145Z,101102.16
2023-04-21T03:18:21.178Z,101098.28
2023-04-21T03:20:49.164Z,101095.13
2023-04-21T03:23:18.632Z,101097.00
2023-04-21T03:25:46.744Z,101103.84
2023-04-21T03:28:15.825Z,101105.66
2023-04-21T03:30:43.833Z,101107.97
2023-04-21T03:33:11.752Z,101098.38
2023-04-21T03:35:39.832Z,101106.06
2023-04-21T03:38:09.949Z,101111.22
2023-04-21T03:40:39.170Z,101116.06
2023-04-21T03:43:07.791Z,101116.00
2023-04-21T03:45:36.312Z,101105.25
2023-04-21T03:48:05.040Z,101112.50
2023-04-21T03:50:33.152Z,101110.94
2023-04-21T03:53:01.335Z,101112.38
2023-04-21T03:55:29.220Z,101118.81
2023-04-21T03:57:58.836Z,101112.81
2023-04-21T04:00:26.819Z,101110.78
2023-04-21T04:02:54.889Z,101104.53
2023-04-21T04:05:23.051Z,101107.81
2023-04-21T04:07:51.335Z,101105.56
2023-04-21T04:10:19.310Z,101105.06
2023-04-21T04:12:47.364Z,101099.50
2023-04-21T04:15:16.890Z,101106.13
2023-04-21T04:17:45.014Z,101108.06
2023-04-21T04:20:13.149Z,101111.50
2023-04-21T04:22:41.104Z,101112.91
2023-04-21T04:25:09.650Z,101116.34
2023-04-21T04:27:37.606Z,101116.81
2023-04-21T04:30:07.167Z,101114.72
2023-04-21T04:32:38.119Z,101118.25
2023-04-21T04:35:06.680Z,101123.75
2023-04-21T04:37:35.158Z,101124.41
2023-04-21T04:40:05.577Z,101125.03
2023-04-21T04:42:34.865Z,101124.84
2023-04-21T04:48:16.928Z,101115.81
2023-04-21T04:50:44.969Z,101116.41
2023-04-21T04:53:12.768Z,101118.88
2023-04-21T04:55:40.630Z,101114.34
2023-04-21T04:58:08.463Z,101118.03
2023-04-21T05:00:37.150Z,101123.91
2023-04-21T05:03:05.483Z,101119.84
2023-04-21T05:05:34.975Z,101116.19
2023-04-21T05:08:02.898Z,101113.75
2023-04-21T05:10:30.815Z,101110.88
2023-04-21T05:12:58.701Z,101109.19
2023-04-21T05:15:26.565Z,101113.56
2023-04-21T05:17:54.411Z,101112.09
2023-04-21T05:20:22.932Z,101119.19
2023-04-21T05:22:52.115Z,101119.41
2023-04-21T05:25:19.955Z,101113.31
2023-04-21T05:27:48.377Z,101117.56
2023-04-21T05:30:16.295Z,101112.97
2023-04-21T05:32:44.222Z,101111.00
2023-04-21T05:35:12.179Z,101117.72
2023-04-21T05:37:40.039Z,101112.41
2023-04-21T05:40:10.286Z,101114.59
2023-04-21T05:42:38.067Z,101113.31
2023-04-21T05:45:06.879Z,101115.88
2023-04-21T05:47:35.441Z,101127.88
2023-04-21T05:50:03.609Z,101117.56
2023-04-21T05:52:31.522Z,101119.09
2023-04-21T05:55:00.553Z,101119.09
2023-04-21T05:57:30.004Z,101126.81
2023-04-21T05:59:57.880Z,101122.00
2023-04-21T06:02:25.963Z,101111.44
2023-04-21T06:04:54.821Z,101111.66
2023-04-21T06:07:22.860Z,101109.63
2023-04-21T06:09:51.816Z,101100.91
2023-04-21T06:12:19.694Z,101101.59
2023-04-21T06:14:48.992Z,101088.91
2023-04-21T06:17:20.270Z,101095.34
2023-04-21T06:19:52.931Z,101095.31
2023-04-21T06:22:21.739Z,101089.75
2023-04-21T06:24:49.816Z,101087.22
2023-04-21T06:27:18.109Z,101088.56
2023-04-21T06:29:46.142Z,101090.34
2023-04-21T06:32:15.344Z,101085.44
2023-04-21T06:34:43.664Z,101082.91
2023-04-21T06:37:11.835Z,101093.09
2023-04-21T06:39:39.747Z,101088.41
2023-04-21T06:42:07.724Z,101082.31
2023-04-21T06:44:43.262Z,101075.97
2023-04-21T06:47:11.334Z,101075.88
2023-04-21T06:49:40.833Z,101073.09
2023-04-21T06:52:08.744Z,101075.81
2023-04-21T06:54:36.891Z,101071.16
2023-04-21T06:57:05.068Z,101081.59
2023-04-21T06:59:34.361Z,101073.88
2023-04-21T07:02:02.388Z,101084.50
2023-04-21T07:04:32.255Z,101084.50
2023-04-21T07:07:03.203Z,101088.81
2023-04-21T07:09:33.800Z,101072.03
2023-04-21T07:12:02.980Z,101072.09
2023-04-21T07:14:31.005Z,101087.25
2023-04-21T07:16:59.368Z,101087.69
2023-04-21T07:19:27.610Z,101082.63
2023-04-21T07:21:55.669Z,101077.09
2023-04-21T07:24:25.654Z,101075.22
2023-04-21T07:26:53.542Z,101080.66
2023-04-21T07:29:21.780Z,101078.22
2023-04-21T07:31:49.757Z,101075.25
2023-04-21T07:34:17.537Z,101073.69
2023-04-21T07:36:45.711Z,101071.66
2023-04-21T07:39:13.868Z,101074.75
2023-04-21T07:41:43.430Z,101064.34
2023-04-21T07:44:11.286Z,101056.81
2023-04-21T07:46:39.383Z,101063.84
2023-04-21T07:49:07.413Z,101064.03
2023-04-21T07:51:35.405Z,101062.91
2023-04-21T07:54:03.999Z,101057.09
2023-04-21T07:56:32.535Z,101047.31
2023-04-21T07:59:02.114Z,101052.91
2023-04-21T08:01:30.109Z,101052.63
2023-04-21T08:03:58.341Z,101054.00
2023-04-21T08:06:27.786Z,101053.38
2023-04-21T08:08:56.007Z,101053.84
2023-04-21T08:11:23.951Z,101049.06
2023-04-21T08:13:52.116Z,101042.47
2023-04-21T08:19:07.924Z,101039.69
2023-04-21T08:21:36.114Z,101044.50
2023-04-21T08:24:04.406Z,101041.69
2023-04-21T08:26:33.868Z,101032.34
2023-04-21T08:29:04.409Z,101028.00
2023-04-21T08:31:34.015Z,101024.25
2023-04-21T08:34:18.229Z,101020.09
2023-04-21T08:36:47.479Z,101016.84
2023-04-21T08:39:17.006Z,101031.19
2023-04-21T08:41:45.314Z,101026.13
2023-04-21T08:44:13.117Z,101030.81
2023-04-21T08:46:43.802Z,101031.75
2023-04-21T08:49:12.738Z,101026.88
2023-04-21T08:51:42.746Z,101026.06
2023-04-21T08:54:10.971Z,101025.72
2023-04-21T08:56:40.291Z,101039.50
2023-04-21T08:59:08.308Z,101035.28
2023-04-21T09:02:10.042Z,101026.41
2023-04-21T09:04:44.284Z,101019.50
2023-04-21T09:07:13.015Z,101019.75
2023-04-21T09:09:53.421Z,101020.00
2023-04-21T09:12:21.611Z,101012.63
2023-04-21T09:14:49.988Z,101015.47
2023-04-21T09:17:19.452Z,101017.84
2023-04-21T09:19:52.102Z,101020.44
2023-04-21T09:22:20.030Z,101018.00
2023-04-21T09:24:48.355Z,101015.94
2023-04-21T09:27:17.746Z,101008.22
2023-04-21T09:29:49.106Z,101001.88
2023-04-21T09:32:20.952Z,101009.13
2023-04-21T09:34:49.104Z,101016.56
2023-04-21T09:37:19.144Z,101008.97
2023-04-21T09:40:03.284Z,101000.28
2023-04-21T09:42:35.052Z,100996.78
2023-04-21T09:47:41.315Z,100989.22
2023-04-21T09:50:12.585Z,100993.34
2023-04-21T09:52:45.055Z,100995.03
2023-04-21T09:55:14.006Z,100982.97
2023-04-21T09:57:43.569Z,100991.72
2023-04-21T10:00:13.562Z,100982.19
2023-04-21T10:02:45.174Z,100986.09
2023-04-21T10:05:13.395Z,100983.09
2023-04-21T10:07:42.753Z,100967.00
2023-04-21T10:10:17.916Z,100975.75
2023-04-21T10:12:46.389Z,100978.66
2023-04-21T10:15:32.761Z,100988.28
2023-04-21T10:18:15.088Z,100971.38
2023-04-21T10:20:54.042Z,100973.97
2023-04-21T10:23:31.540Z,100961.34
2023-04-21T10:26:05.110Z,100969.50
2023-04-21T10:29:03.298Z,100961.25
2023-04-21T10:31:33.667Z,100963.06
2023-04-21T10:34:22.244Z,100956.97
2023-04-21T10:37:12.903Z,100951.72
2023-04-21T10:39:55.723Z,100965.53
2023-04-21T10:42:34.953Z,100953.59
2023-04-21T10:45:11.594Z,100937.31
2023-04-21T10:47:45.373Z,100929.75
2023-04-21T10:50:15.867Z,100919.38
2023-04-21T10:52:48.806Z,100925.59
2023-04-21T10:55:18.151Z,100929.34
2023-04-21T10:57:46.760Z,100922.94
2023-04-21T11:00:20.944Z,100920.16
2023-04-21T11:02:58.481Z,100916.50
2023-04-21T11:05:32.208Z,100917.13
2023-04-21T11:08:14.445Z,100918.09
2023-04-21T11:10:51.285Z,100925.41
2023-04-21T11:13:22.317Z,100910.56
2023-04-21T11:16:02.188Z,100894.16
2023-04-21T11:18:39.669Z,100901.00
2023-04-21T11:21:13.811Z,100903.72
2023-04-21T11:23:42.982Z,100897.59
2023-04-21T11:26:12.420Z,100898.75
2023-04-21T11:28:41.925Z,100890.59
2023-04-21T11:31:10.107Z,100890.75
2023-04-21T11:33:39.271Z,100888.75
2023-04-21T11:36:08.025Z,100892.44
2023-04-21T11:38:41.130Z,100867.53
2023-04-21T11:41:10.857Z,100884.75
2023-04-21T11:43:40.553Z,100874.78
2023-04-21T11:46:17.972Z,100867.81
2023-04-21T11:48:46.890Z,100870.09
2023-04-21T11:51:21.504Z,100863.25
2023-04-21T11:53:50.561Z,100866.66
2023-04-21T11:56:20.079Z,100876.06
2023-04-21T11:58:51.622Z,100875.31
2023-04-21T12:01:20.122Z,100856.34
2023-04-21T12:03:55.575Z,100859.66
2023-04-21T12:06:28.723Z,100853.09
2023-04-21T12:08:58.505Z,100864.34
2023-04-21T12:11:29.086Z,100850.38
2023-04-21T12:13:59.491Z,100858.53
2023-04-21T12:16:28.484Z,100849.72
2023-04-21T12:18:57.605Z,100851.47
2023-04-21T12:21:28.782Z,100834.28
2023-04-21T12:23:57.100Z,100819.63
2023-04-21T12:26:25.243Z,100852.34
2023-04-21T12:28:53.340Z,100833.53
2023-04-21T12:31:23.057Z,100825.31
2023-04-21T12:33:51.255Z,100838.84
2023-04-21T12:36:19.430Z,100834.84
2023-04-21T12:38:47.591Z,100820.59
2023-04-21T12:41:15.668Z,100811.06
2023-04-21T12:43:43.814Z,100806.47
2023-04-21T12:46:12.449Z,100807.88
2023-04-21T12:48:42.625Z,100809.22
2023-04-21T12:51:10.524Z,100804.81
2023-04-21T12:53:39.082Z,100799.81
2023-04-21T12:56:07.969Z,100791.84
2023-04-21T12:58:36.092Z,100796.00
2023-04-21T13:01:03.932Z,100803.34
2023-04-21T13:03:32.100Z,100796.41
2023-04-21T13:06:01.817Z,100787.09
2023-04-21T13:08:29.666Z,100787.66
2023-04-21T13:10:57.477Z,100793.44
2023-04-21T13:13:25.378Z,100794.69
2023-04-21T13:15:53.614Z,100790.75
2023-04-21T13:18:21.638Z,100783.88
2023-04-21T13:20:49.657Z,100778.00
2023-04-21T13:23:18.926Z,100774.28
2023-04-21T13:25:46.854Z,100779.63
2023-04-21T13:28:15.301Z,100781.59
2023-04-21T13:30:43.318Z,100785.78
2023-04-21T13:33:11.952Z,100767.66
2023-04-21T13:35:40.123Z,100767.97
2023-04-21T13:38:07.989Z,100754.34
2023-04-21T13:40:37.267Z,100752.88
2023-04-21T13:43:05.234Z,100766.59
2023-04-21T13:45:33.117Z,100774.00
2023-04-21T13:48:01.173Z,100761.16
2023-04-21T13:50:29.454Z,100741.44
2023-04-21T13:52:57.392Z,100748.47
2023-04-21T13:55:25.391Z,100747.56
2023-04-21T13:57:55.489Z,100744.56
2023-04-21T14:00:23.574Z,100743.50
2023-04-21T14:02:51.777Z,100733.00
2023-04-21T14:05:20.358Z,100740.69
2023-04-21T14:07:48.894Z,100727.22
2023-04-21T14:10:17.110Z,100731.50
2023-04-21T14:12:45.531Z,100734.94
2023-04-21T14:15:17.755Z,100744.84
2023-04-21T14:17:45.835Z,100715.06
2023-04-21T14:20:13.981Z,100722.75
2023-04-21T14:22:41.914Z,100726.25
2023-04-21T14:25:10.261Z,100705.28
2023-04-21T14:27:38.312Z,100703.16
2023-04-21T14:30:07.326Z,100713.34
2023-04-21T14:32:45.976Z,100705.34
2023-04-21T14:35:14.708Z,100704.31
2023-04-21T14:37:42.909Z,100698.63
2023-04-21T14:40:11.629Z,100698.19
2023-04-21T14:42:41.581Z,100699.09
2023-04-21T14:45:11.018Z,100682.97
2023-04-21T14:47:40.864Z,100684.38
2023-04-21T14:50:10.120Z,100692.13
2023-04-21T14:52:38.672Z,100689.94
2023-04-21T14:55:07.791Z,100677.19
2023-04-21T14:57:35.760Z,100688.19
2023-04-21T15:00:03.941Z,100681.63
2023-04-21T15:02:32.057Z,100682.31
2023-04-21T15:05:02.767Z,100667.66
2023-04-21T15:07:31.115Z,100671.34
2023-04-21T15:09:59.329Z,100672.41
2023-04-21T15:12:27.612Z,100671.81
2023-04-21T15:14:55.700Z,100664.91
2023-04-21T15:17:24.087Z,100672.31
2023-04-21T15:19:52.182Z,100661.56
2023-04-21T15:22:21.508Z,100654.91
2023-04-21T15:24:51.161Z,100662.28
2023-04-21T15:27:20.318Z,100654.75
2023-04-21T15:29:48.789Z,100660.28
2023-04-21T15:32:17.221Z,100651.50
2023-04-21T15:34:45.711Z,100655.41
2023-04-21T15:37:14.588Z,100663.09
2023-04-21T15:39:44.521Z,100650.91
2023-04-21T15:42:12.615Z,100656.66
2023-04-21T15:44:41.995Z,100642.84
2023-04-21T15:47:10.044Z,100643.34
2023-04-21T15:49:39.147Z,100634.28
2023-04-21T15:52:07.382Z,100645.69
2023-04-21T15:54:35.515Z,100644.16
2023-04-21T15:57:05.466Z,100631.63
2023-04-21T15:59:33.614Z,100635.06
2023-04-21T16:02:03.340Z,100621.69
2023-04-21T16:04:31.875Z,100635.03
2023-04-21T16:06:59.975Z,100641.66
2023-04-21T16:09:27.849Z,100618.91
2023-04-21T16:11:57.001Z,100617.06
2023-04-21T16:14:26.858Z,100624.38
2023-04-21T16:16:55.106Z,100623.09
2023-04-21T16:19:23.361Z,100615.53
2023-04-21T16:21:51.705Z,100615.50
2023-04-21T16:24:20.221Z,100608.09
2023-04-21T16:26:48.406Z,100603.50
2023-04-21T16:29:16.417Z,100604.53
2023-04-21T16:31:46.744Z,100600.38
2023-04-21T16:34:16.440Z,100609.63
2023-04-21T16:36:44.778Z,100595.81
2023-04-21T16:39:13.251Z,100588.88
2023-04-21T16:41:41.401Z,100595.75
2023-04-21T16:44:09.321Z,100573.66
2023-04-21T16:46:37.970Z,100591.13
2023-04-21T16:49:07.709Z,100571.47
2023-04-21T16:51:36.991Z,100578.03
2023-04-21T16:54:05.514Z,100574.31
2023-04-21T16:56:33.654Z,100574.78
2023-04-21T16:59:01.727Z,100573.84
2023-04-21T17:01:29.846Z,100576.06
2023-04-21T17:03:58.015Z,100574.72
2023-04-21T17:06:27.879Z,100582.22
2023-04-21T17:08:59.838Z,100568.06
2023-04-21T17:11:28.887Z,100576.28
2023-04-21T17:13:57.103Z,100573.25
2023-04-21T17:16:25.536Z,100575.84
2023-04-21T17:18:55.017Z,100576.63
2023-04-21T17:21:23.236Z,100567.16
2023-04-21T17:23:52.914Z,100564.41
2023-04-21T17:26:21.728Z,100562.16
2023-04-21T17:28:50.076Z,100563.78
2023-04-21T17:31:18.523Z,100561.59
2023-04-21T17:33:46.903Z,100553.25
2023-04-21T17:36:16.811Z,100552.81
2023-04-21T17:38:45.123Z,100557.88
2023-04-21T17:41:14.460Z,100558.03
2023-04-21T17:43:42.798Z,100544.19
2023-04-21T17:46:11.818Z,100542.72
2023-04-21T17:48:39.863Z,100534.88
2023-04-21T17:51:08.057Z,100556.47
2023-04-21T17:53:37.118Z,100547.16
2023-04-21T17:56:05.555Z,100555.78
2023-04-21T17:58:38.433Z,100551.06
2023-04-21T18:01:07.236Z,100555.81
2023-04-21T18:03:37.345Z,100549.56
2023-04-21T18:06:06.213Z,100558.56
2023-04-21T18:08:35.749Z,100560.91
2023-04-21T18:11:04.361Z,100548.34
2023-04-21T18:13:33.079Z,100549.28
2023-04-21T18:16:09.725Z,100549.47
2023-04-21T18:18:38.764Z,100546.00
2023-04-21T18:21:08.015Z,100545.84
2023-04-21T18:23:43.132Z,100557.31
2023-04-21T18:26:14.624Z,100545.28
2023-04-21T18:28:42.880Z,100550.50
2023-04-21T18:31:12.891Z,100547.06
2023-04-21T18:33:41.285Z,100547.31
2023-04-21T18:36:09.662Z,100549.34
2023-04-21T18:38:38.437Z,100560.97
2023-04-21T18:41:06.650Z,100546.47
2023-04-21T18:43:35.168Z,100551.06
2023-04-21T18:46:03.270Z,100559.31
2023-04-21T18:48:32.794Z,100553.94
2023-04-21T18:51:01.139Z,100544.34
2023-04-21T18:53:29.422Z,100546.56
2023-04-21T18:55:57.485Z,100546.16
2023-04-21T18:58:25.669Z,100540.63
2023-04-21T19:00:53.836Z,100543.41
2023-04-21T19:03:22.258Z,100537.59
2023-04-21T19:05:52.018Z,100541.03
2023-04-21T19:08:33.838Z,100540.59
2023-04-21T19:11:06.811Z,100546.28
2023-04-21T19:13:34.979Z,100546.97
2023-04-21T19:16:05.191Z,100543.03
2023-04-21T19:18:33.482Z,100539.84
2023-04-21T19:21:04.480Z,100545.81
2023-04-21T19:23:32.576Z,100542.16
2023-04-21T19:26:04.804Z,100548.13
2023-04-21T19:28:33.038Z,100556.19
2023-04-21T19:31:01.348Z,100554.88
2023-04-21T19:33:29.808Z,100549.75
2023-04-21T19:35:59.257Z,100555.69
2023-04-21T19:38:29.067Z,100542.34
2023-04-21T19:40:58.344Z,100556.78
2023-04-21T19:43:26.866Z,100552.41
2023-04-21T19:45:55.222Z,100554.09
2023-04-21T19:48:23.566Z,100554.34
2023-04-21T19:50:52.317Z,100558.19
2023-04-21T19:53:20.481Z,100551.59
2023-04-21T19:55:52.520Z,100551.22
2023-04-21T19:58:38.228Z,100547.38
2023-04-21T20:01:08.388Z,100552.44
2023-04-21T20:03:36.854Z,100547.13
2023-04-21T20:06:05.868Z,100545.44
2023-04-21T20:08:33.980Z,100549.78
2023-04-21T20:11:03.844Z,100546.41
2023-04-21T20:13:32.285Z,100543.41
2023-04-21T20:16:03.618Z,100548.31
2023-04-21T20:18:32.016Z,100550.75
2023-04-21T20:21:00.368Z,100551.81
2023-04-21T20:23:36.876Z,100548.09
2023-04-21T20:26:07.680Z,100552.34
2023-04-21T20:28:53.247Z,100537.22
2023-04-21T20:31:24.022Z,100544.53
2023-04-21T20:33:52.378Z,100542.06
2023-04-21T20:36:21.932Z,100554.06
2023-04-21T20:38:50.565Z,100537.06
2023-04-21T20:41:23.333Z,100552.34
2023-04-21T20:43:52.008Z,100552.09
2023-04-21T20:46:20.001Z,100550.38
2023-04-21T20:48:48.097Z,100553.53
2023-04-21T20:51:16.117Z,100555.13
2023-04-21T20:53:44.081Z,100551.41
2023-04-21T20:56:12.126Z,100551.56
2023-04-21T20:58:41.638Z,100565.53
2023-04-21T21:01:09.539Z,100552.94
2023-04-21T21:03:40.639Z,100546.53
2023-04-21T21:06:09.750Z,100562.09
2023-04-21T21:08:38.099Z,100548.97
2023-04-21T21:11:06.637Z,100551.22
2023-04-21T21:13:34.812Z,100560.84
2023-04-21T21:16:04.228Z,100559.94
2023-04-21T21:18:34.687Z,100557.19
2023-04-21T21:21:02.687Z,100552.94
2023-04-21T21:23:32.786Z,100553.56
2023-04-21T21:26:01.502Z,100556.69
2023-04-21T21:28:33.614Z,100555.81
2023-04-21T21:31:05.966Z,100558.97
2023-04-21T21:33:36.286Z,100550.97
2023-04-21T21:36:05.071Z,100549.78
2023-04-21T21:38:33.415Z,100558.72
2023-04-21T21:41:01.517Z,100560.81
2023-04-21T21:43:29.393Z,100554.97
2023-04-21T21:45:57.555Z,100553.47
2023-04-21T21:48:25.517Z,100549.25
2023-04-21T21:50:54.863Z,100545.22
2023-04-21T21:53:22.847Z,100545.06
2023-04-21T21:55:50.754Z,100546.78
2023-04-21T21:58:18.794Z,100543.94
2023-04-21T22:00:51.731Z,100545.31
2023-04-21T22:03:20.175Z,100544.97
2023-04-21T22:05:48.332Z,100538.53
2023-04-21T22:08:17.643Z,100542.59
2023-04-21T22:10:46.150Z,100543.59
2023-04-21T22:13:14.631Z,100538.44
2023-04-21T22:15:42.925Z,100547.19
2023-04-21T22:18:11.168Z,100541.28
2023-04-21T22:20:39.557Z,100549.34
2023-04-21T22:23:07.653Z,100538.41
2023-04-21T22:25:37.023Z,100540.06
2023-04-21T22:28:05.122Z,100530.78
2023-04-21T22:30:33.062Z,100534.97
2023-04-21T22:33:01.358Z,100526.88
2023-04-21T22:35:29.499Z,100532.41
2023-04-21T22:37:57.678Z,100528.06
2023-04-21T22:40:25.971Z,100525.53
2023-04-21T22:42:55.263Z,100523.03
2023-04-21T22:45:23.233Z,100521.09
2023-04-21T22:47:51.414Z,100525.63
2023-04-21T22:50:19.965Z,100520.75
2023-04-21T22:52:47.853Z,100524.69
2023-04-21T22:55:15.938Z,100524.97
2023-04-21T22:57:44.117Z,100511.91
2023-04-21T23:00:14.226Z,100510.47
2023-04-21T23:02:42.339Z,100501.50
2023-04-21T23:05:11.123Z,100504.66
2023-04-21T23:07:39.223Z,100505.22
2023-04-21T23:10:08.036Z,100503.22
2023-04-21T23:12:36.125Z,100490.34
2023-04-21T23:15:04.601Z,100495.81
2023-04-21T23:17:33.979Z,100491.97
2023-04-21T23:20:02.695Z,100491.06
2023-04-21T23:22:30.680Z,100489.69
2023-04-21T23:24:58.644Z,100494.31
2023-04-21T23:27:26.573Z,100490.84
2023-04-21T23:29:54.545Z,100488.56
2023-04-21T23:32:22.599Z,100495.38
2023-04-21T23:34:51.845Z,100490.81
2023-04-21T23:37:19.705Z,100479.78
2023-04-21T23:39:47.577Z,100477.09
2023-04-21T23:42:15.556Z,100489.31
2023-04-21T23:44:43.410Z,100475.41
2023-04-21T23:47:11.643Z,100477.84
2023-04-21T23:49:39.899Z,100472.41
2023-04-21T23:52:09.375Z,100476.06
2023-04-21T23:54:37.387Z,100482.25
2023-04-21T23:57:05.230Z,100483.81
2023-04-21T23:59:33.055Z,100479.88
